createdAt,value
2019-02-18T00:06:37.911Z,999.22
2019-02-18T00:16:37.968Z,999.27
2019-02-18T00:26:37.930Z,999.26
2019-02-18T00:36:37.999Z,999.28
2019-02-18T00:46:37.950Z,999.18
2019-02-18T00:56:37.998Z,999.19
2019-02-18T01:06:37.926Z,999.07
2019-02-18T01:16:37.963Z,999.15
2019-02-18T01:26:37.955Z,999.20
2019-02-18T01:36:37.909Z,999.16
2019-02-18T01:46:37.959Z,999.14
2019-02-18T01:56:38.037Z,999.07
2019-02-18T02:06:37.926Z,999.12
2019-02-18T02:16:38.800Z,999.15
2019-02-18T02:26:38.051Z,999.01
2019-02-18T02:36:38.062Z,999.00
2019-02-18T02:46:38.007Z,998.91
2019-02-18T02:56:37.998Z,998.85
2019-02-18T03:06:37.931Z,998.79
2019-02-18T03:16:37.929Z,998.81
2019-02-18T03:26:37.916Z,998.75
2019-02-18T03:36:38.010Z,998.67
2019-02-18T03:46:38.004Z,998.68
2019-02-18T03:56:38.901Z,998.69
2019-02-18T04:06:37.906Z,998.73
2019-02-18T04:16:37.895Z,998.71
2019-02-18T04:26:37.937Z,998.73
2019-02-18T04:36:38.129Z,998.67
2019-02-18T04:46:37.912Z,998.72
2019-02-18T04:56:37.991Z,998.74
2019-02-18T05:06:37.984Z,998.73
2019-02-18T05:16:37.942Z,998.63
2019-02-18T05:26:37.991Z,998.71
2019-02-18T05:36:37.975Z,998.61
2019-02-18T05:46:37.950Z,998.63
2019-02-18T05:56:38.031Z,998.59
2019-02-18T06:06:38.092Z,998.53
2019-02-18T06:16:37.920Z,998.59
2019-02-18T06:26:37.954Z,998.48
2019-02-18T06:36:38.024Z,998.54
2019-02-18T06:46:37.945Z,998.42
2019-02-18T06:56:38.071Z,998.46
2019-02-18T07:06:38.799Z,998.35
2019-02-18T07:16:38.039Z,998.53
2019-02-18T07:26:38.721Z,998.56
2019-02-18T07:36:38.048Z,998.40
2019-02-18T07:46:38.034Z,998.41
2019-02-18T07:56:38.018Z,998.33
2019-02-18T08:06:38.001Z,998.34
2019-02-18T08:16:37.939Z,998.38
2019-02-18T08:26:37.997Z,998.37
2019-02-18T08:36:38.089Z,998.25
2019-02-18T08:46:38.493Z,998.16
2019-02-18T08:56:38.026Z,998.09
2019-02-18T09:06:37.984Z,998.04
2019-02-18T09:16:38.048Z,997.94
2019-02-18T09:26:38.058Z,997.95
2019-02-18T09:36:38.016Z,997.84
2019-02-18T09:46:40.316Z,997.89
2019-02-18T09:56:37.983Z,997.77
2019-02-18T10:06:37.952Z,997.76
2019-02-18T10:16:37.924Z,997.71
2019-02-18T10:26:38.042Z,997.65
2019-02-18T10:36:38.032Z,997.52
2019-02-18T10:46:40.512Z,997.47
2019-02-18T10:56:38.657Z,997.41
2019-02-18T11:06:38.136Z,997.27
2019-02-18T11:16:39.305Z,997.26
2019-02-18T11:26:38.022Z,997.18
2019-02-18T11:36:38.089Z,997.00
2019-02-18T11:46:40.210Z,996.87
2019-02-18T11:56:38.159Z,996.68
2019-02-18T12:06:37.933Z,996.62
2019-02-18T12:16:38.102Z,996.40
2019-02-18T12:26:38.089Z,996.23
2019-02-18T12:36:38.102Z,996.03
2019-02-18T12:46:38.100Z,995.96
2019-02-18T12:56:38.139Z,995.83
2019-02-18T13:06:38.169Z,995.79
2019-02-18T13:16:38.956Z,995.51
2019-02-18T13:26:40.952Z,995.50
2019-02-18T13:36:38.186Z,995.41
2019-02-18T13:46:38.131Z,995.22
2019-02-18T13:56:39.327Z,995.12
2019-02-18T14:06:38.095Z,995.15
2019-02-18T14:16:38.103Z,995.13
2019-02-18T14:26:37.998Z,995.08
2019-02-18T14:36:38.156Z,995.12
2019-02-18T14:46:39.040Z,995.03
2019-02-18T14:56:38.169Z,995.08
2019-02-18T15:06:38.257Z,995.21
2019-02-18T15:16:38.032Z,995.32
2019-02-18T15:26:38.439Z,995.17
2019-02-18T15:36:38.152Z,995.35
2019-02-18T15:46:38.143Z,995.49
2019-02-18T15:56:38.193Z,995.24
2019-02-18T16:06:38.078Z,995.33
2019-02-18T16:16:38.110Z,995.17
2019-02-18T16:26:38.068Z,995.28
2019-02-18T16:36:38.007Z,995.23
2019-02-18T16:46:38.063Z,995.18
2019-02-18T16:56:38.101Z,995.31
2019-02-18T17:06:38.655Z,995.41
2019-02-18T17:16:38.011Z,995.54
2019-02-18T17:26:38.009Z,995.62
2019-02-18T17:36:38.100Z,995.63
2019-02-18T17:46:38.086Z,995.68
2019-02-18T17:56:38.046Z,995.66
2019-02-18T18:06:38.055Z,995.69
2019-02-18T18:16:38.076Z,995.69
2019-02-18T18:26:38.092Z,995.69
2019-02-18T18:36:38.048Z,995.67
2019-02-18T18:46:38.092Z,995.75
2019-02-18T18:56:38.067Z,995.76
2019-02-18T19:06:38.014Z,995.74
2019-02-18T19:16:38.229Z,995.73
2019-02-18T19:26:38.042Z,995.74
2019-02-18T19:36:38.014Z,995.73
2019-02-18T19:46:38.050Z,995.79
2019-02-18T19:56:38.018Z,995.77
2019-02-18T20:06:38.017Z,995.75
2019-02-18T20:16:38.056Z,995.89
2019-02-18T20:26:38.087Z,995.87
2019-02-18T20:36:37.980Z,995.96
2019-02-18T20:46:38.048Z,995.99
2019-02-18T20:56:39.154Z,995.97
2019-02-18T21:06:38.014Z,996.01
2019-02-18T21:16:38.077Z,995.92
2019-02-18T21:26:38.055Z,995.88
2019-02-18T21:36:38.076Z,995.89
2019-02-18T21:46:39.073Z,995.95
2019-02-18T21:56:37.952Z,995.83
2019-02-18T22:06:38.113Z,995.96
2019-02-18T22:16:38.040Z,995.90
2019-02-18T22:26:37.981Z,995.88
2019-02-18T22:36:37.956Z,995.87
2019-02-18T22:46:38.324Z,995.82
2019-02-18T22:56:40.655Z,995.71
2019-02-18T23:06:37.995Z,995.70
2019-02-18T23:16:37.923Z,995.83
2019-02-18T23:26:38.017Z,995.76
2019-02-18T23:36:37.939Z,995.75
2019-02-18T23:46:38.011Z,995.86
2019-02-18T23:56:38.024Z,995.95
